Time;durP1;ratioP1;P1;durP2;ratioP2;P2;SDS_P1;SDS_P2;PMS_P1;PMS_P2;Temp;Humidity;BMP_temperature;BMP_pressure;BME280_temperature;BME280_humidity;BME280_pressure;Samples;Min_cycle;Max_cycle;Signal;HPM_P1;HPM_P2
2022/11/16 00:01:23;;;;;;;;;;;11.00;94.50;;;;;;5069792;28;20014;-94
2022/11/16 00:03:50;;;;;;;;;;;11.00;94.60;;;;;;5054673;28;20392;-95
2022/11/16 00:06:15;;;;;;;;;;;11.00;94.50;;;;;;5054288;28;19951;-94
2022/11/16 00:08:42;;;;;;;;;;;10.90;94.60;;;;;;5054559;28;19939;-94
2022/11/16 00:11:12;;;;;;;;;;;11.00;94.60;;;;;;5054559;28;19946;-94
2022/11/16 00:13:39;;;;;;;;;;;11.10;94.50;;;;;;5054176;28;19944;-94
2022/11/16 00:16:05;;;;;;;;;;;11.10;94.50;;;;;;5054421;28;20036;-94
2022/11/16 00:18:30;;;;;;;;;;;11.10;94.40;;;;;;5054447;28;20289;-94
2022/11/16 00:20:56;;;;;;;;;;;11.10;94.30;;;;;;5054362;28;19939;-94
2022/11/16 00:23:22;;;;;;;;;;;11.10;94.20;;;;;;5054401;28;20309;-94
2022/11/16 00:25:47;;;;;;;;;;;11.10;94.20;;;;;;5054361;28;20372;-94
2022/11/16 00:28:13;;;;;;;;;;;11.10;94.10;;;;;;5054611;28;19950;-93
2022/11/16 00:30:39;;;;;;;;;;;11.20;94.10;;;;;;5054241;28;19951;-94
2022/11/16 00:33:05;;;;;;;;;;;11.10;94.10;;;;;;5069311;28;19948;-94
2022/11/16 00:35:31;;;;;;;;;;;11.10;94.10;;;;;;5054144;28;20051;-94
2022/11/16 00:37:57;;;;;;;;;;;11.10;94.10;;;;;;5053884;28;20030;-94
2022/11/16 00:40:22;;;;;;;;;;;11.10;94.10;;;;;;5054455;28;19943;-93
2022/11/16 00:42:48;;;;;;;;;;;11.20;94.10;;;;;;5053785;28;19948;-94
2022/11/16 00:45:13;;;;;;;;;;;11.20;94.00;;;;;;5053831;28;20308;-94
2022/11/16 00:47:39;;;;;;;;;;;11.20;94.00;;;;;;5054117;28;20072;-94
2022/11/16 00:50:05;;;;;;;;;;;11.10;94.00;;;;;;5053657;28;19982;-94
2022/11/16 00:52:30;;;;;;;;;;;11.10;94.10;;;;;;5053698;28;20021;-94
2022/11/16 00:54:56;;;;;;;;;;;11.00;94.20;;;;;;5052405;28;19950;-95
2022/11/16 00:57:22;;;;;;;;;;;11.10;94.20;;;;;;5054290;28;19942;-94
2022/11/16 00:59:48;;;;;;;;;;;11.10;94.30;;;;;;5053666;28;19940;-95
2022/11/16 01:02:13;;;;;;;;;;;11.00;94.30;;;;;;5053928;28;19941;-94
2022/11/16 01:04:39;;;;;;;;;;;11.00;94.40;;;;;;5053636;28;20025;-94
2022/11/16 01:07:05;;;;;;;;;;;11.00;94.50;;;;;;5054148;28;19947;-94
2022/11/16 01:09:30;;;;;;;;;;;11.00;94.60;;;;;;5053591;28;19946;-95
2022/11/16 01:12:08;;;;;;;;;;;11.00;94.60;;;;;;5053851;28;20306;-94
2022/11/16 01:14:51;;;;;;;;;;;11.00;94.60;;;;;;5052253;28;19944;-94
2022/11/16 01:17:17;;;;;;;;;;;11.00;94.70;;;;;;5054021;28;19981;-94
2022/11/16 01:19:43;;;;;;;;;;;11.00;94.90;;;;;;5053460;28;20289;-94
2022/11/16 01:22:08;;;;;;;;;;;11.00;94.90;;;;;;5054086;28;20005;-94
2022/11/16 01:24:34;;;;;;;;;;;11.00;94.90;;;;;;5053734;28;20365;-94
2022/11/16 01:26:59;;;;;;;;;;;11.00;95.00;;;;;;5053725;28;19946;-94
2022/11/16 01:29:26;;;;;;;;;;;11.00;95.10;;;;;;5053401;28;20328;-94
2022/11/16 01:31:51;;;;;;;;;;;11.00;95.10;;;;;;5053987;28;20035;-94
2022/11/16 01:34:17;;;;;;;;;;;11.00;95.10;;;;;;5053336;28;20450;-95
2022/11/16 01:36:42;;;;;;;;;;;11.00;95.20;;;;;;5053544;28;20439;-94
2022/11/16 01:39:09;;;;;;;;;;;10.90;95.30;;;;;;5053575;28;19991;-94
2022/11/16 01:41:34;;;;;;;;;;;11.00;95.40;;;;;;5053908;28;19995;-94
2022/11/16 01:44:04;;;;;;;;;;;11.00;95.40;;;;;;5053292;28;19980;-94
2022/11/16 01:46:30;;;;;;;;;;;11.10;95.40;;;;;;5053557;28;20009;-94
2022/11/16 01:48:58;;;;;;;;;;;11.10;95.30;;;;;;5053564;28;20395;-94
2022/11/16 01:51:25;;;;;;;;;;;11.10;95.20;;;;;;5053078;28;20006;-94
2022/11/16 01:53:50;;;;;;;;;;;11.10;95.20;;;;;;5054607;28;19996;-94
2022/11/16 01:56:16;;;;;;;;;;;11.10;95.20;;;;;;5057299;28;20443;-94
2022/11/16 01:58:41;;;;;;;;;;;11.10;95.30;;;;;;5056820;28;19938;-94
2022/11/16 02:01:07;;;;;;;;;;;11.10;95.40;;;;;;5056981;28;19961;-94
2022/11/16 02:03:35;;;;;;;;;;;11.10;95.30;;;;;;5056920;28;19940;-94
2022/11/16 02:06:20;;;;;;;;;;;11.20;95.20;;;;;;5056923;28;19939;-94
2022/11/16 02:11:51;;;;;;;;;;;11.10;95.30;;;;;;5056498;28;19942;-94
2022/11/16 02:14:17;;;;;;;;;;;11.10;95.20;;;;;;5055162;28;19942;-94
2022/11/16 02:16:52;;;;;;;;;;;11.20;95.10;;;;;;5055025;28;19970;-94
2022/11/16 02:19:17;;;;;;;;;;;11.10;94.90;;;;;;5056928;28;19985;-94
2022/11/16 02:21:46;;;;;;;;;;;11.10;95.00;;;;;;5056559;28;20026;-94
2022/11/16 02:24:15;;;;;;;;;;;11.10;95.00;;;;;;5056862;28;19937;-94
2022/11/16 02:26:43;;;;;;;;;;;11.10;95.00;;;;;;5056200;28;19939;-94
2022/11/16 02:29:30;;;;;;;;;;;11.10;95.00;;;;;;5054938;28;19958;-94
2022/11/16 02:32:11;;;;;;;;;;;11.10;95.00;;;;;;5056700;28;19946;-94
2022/11/16 02:34:58;;;;;;;;;;;11.00;95.10;;;;;;5056337;28;20033;-95
2022/11/16 02:37:25;;;;;;;;;;;11.00;95.20;;;;;;5055972;28;19963;-94
2022/11/16 02:39:53;;;;;;;;;;;11.00;95.40;;;;;;5056332;28;19947;-93
2022/11/16 02:42:25;;;;;;;;;;;10.90;95.40;;;;;;5056355;28;19992;-94
2022/11/16 02:44:53;;;;;;;;;;;10.90;95.50;;;;;;5054997;28;19945;-94
2022/11/16 02:47:21;;;;;;;;;;;10.90;95.50;;;;;;5056164;28;19944;-94
2022/11/16 02:49:49;;;;;;;;;;;10.90;95.60;;;;;;5055939;28;19941;-94
2022/11/16 02:52:15;;;;;;;;;;;10.90;95.70;;;;;;5055395;28;19979;-95
2022/11/16 02:54:40;;;;;;;;;;;10.90;95.70;;;;;;5054427;28;19949;-94
2022/11/16 02:57:05;;;;;;;;;;;10.90;95.70;;;;;;5055839;28;19959;-94
2022/11/16 02:59:35;;;;;;;;;;;10.90;95.70;;;;;;5055549;28;20006;-94
2022/11/16 03:02:12;;;;;;;;;;;10.90;95.70;;;;;;5056154;28;19946;-95
2022/11/16 03:04:41;;;;;;;;;;;10.90;95.70;;;;;;5054968;28;20027;-94
2022/11/16 03:07:09;;;;;;;;;;;10.90;95.70;;;;;;5055800;28;20027;-94
2022/11/16 03:09:37;;;;;;;;;;;10.90;95.70;;;;;;5055455;28;19943;-94
2022/11/16 03:12:07;;;;;;;;;;;10.90;95.70;;;;;;5056455;28;19941;-94
2022/11/16 03:14:41;;;;;;;;;;;11.00;95.70;;;;;;5054026;28;20040;-94
2022/11/16 03:17:11;;;;;;;;;;;11.00;95.70;;;;;;5055447;28;20044;-94
2022/11/16 03:19:40;;;;;;;;;;;10.90;95.70;;;;;;5055307;28;19943;-94
2022/11/16 03:22:17;;;;;;;;;;;10.90;95.70;;;;;;5055761;28;19986;-94
2022/11/16 03:24:43;;;;;;;;;;;11.00;95.60;;;;;;5055405;28;20035;-95
2022/11/16 03:27:20;;;;;;;;;;;10.90;95.60;;;;;;5055352;28;19968;-94
2022/11/16 03:29:47;;;;;;;;;;;10.90;95.50;;;;;;5054987;28;19939;-94
2022/11/16 03:32:17;;;;;;;;;;;11.00;95.50;;;;;;5055564;28;19940;-94
2022/11/16 03:34:46;;;;;;;;;;;11.00;95.50;;;;;;5054957;28;19942;-94
2022/11/16 03:37:12;;;;;;;;;;;11.00;95.40;;;;;;5055393;28;20384;-94
2022/11/16 03:39:38;;;;;;;;;;;10.90;95.40;;;;;;5054801;28;19979;-94
2022/11/16 03:42:06;;;;;;;;;;;11.00;95.50;;;;;;5055104;28;19938;-94
2022/11/16 03:44:32;;;;;;;;;;;11.00;95.40;;;;;;5053472;28;19948;-94
2022/11/16 03:46:57;;;;;;;;;;;10.90;95.40;;;;;;5054977;28;20018;-94
2022/11/16 03:49:23;;;;;;;;;;;10.90;95.40;;;;;;5054692;28;20318;-94
2022/11/16 03:51:49;;;;;;;;;;;10.90;95.50;;;;;;5054440;28;20077;-94
2022/11/16 03:54:14;;;;;;;;;;;10.90;95.50;;;;;;5054537;28;19979;-94
2022/11/16 03:56:40;;;;;;;;;;;10.90;95.50;;;;;;5054767;28;20072;-94
2022/11/16 03:59:06;;;;;;;;;;;10.90;95.50;;;;;;5054501;28;19940;-94
2022/11/16 04:01:31;;;;;;;;;;;10.90;95.60;;;;;;5054717;28;20291;-94
2022/11/16 04:03:57;;;;;;;;;;;10.90;95.60;;;;;;5054669;28;19949;-94
2022/11/16 04:25:40;;;;;;;;;;;10.90;95.30;;;;;;5054668;28;19947;-94
2022/11/16 04:28:12;;;;;;;;;;;11.00;95.30;;;;;;5054321;28;19945;-94
2022/11/16 04:38:51;;;;;;;;;;;10.90;95.20;;;;;;5054458;28;19943;-94
2022/11/16 04:44:00;;;;;;;;;;;10.90;95.30;;;;;;5054142;28;20461;-94
2022/11/16 04:49:10;;;;;;;;;;;10.90;95.30;;;;;;5053794;28;19942;-94
2022/11/16 04:51:35;;;;;;;;;;;10.90;95.30;;;;;;5053605;28;19974;-94
2022/11/16 04:54:01;;;;;;;;;;;11.00;95.30;;;;;;5053667;28;20303;-95
2022/11/16 04:56:26;;;;;;;;;;;10.90;95.30;;;;;;5053868;28;20313;-94
2022/11/16 04:58:52;;;;;;;;;;;11.00;95.20;;;;;;5053959;28;19940;-94
2022/11/16 05:02:06;;;;;;;;;;;11.00;95.20;;;;;;5053955;28;19943;-94
2022/11/16 05:04:03;;;;;;;;;;;11.00;95.10;;;;;;5053583;28;19947;-94
2022/11/16 05:06:28;;;;;;;;;;;11.00;95.00;;;;;;5054197;28;20392;-94
2022/11/16 05:08:54;;;;;;;;;;;10.90;95.10;;;;;;5053613;28;19942;-94
2022/11/16 05:11:19;;;;;;;;;;;10.90;95.10;;;;;;5053870;28;19940;-94
2022/11/16 05:13:45;;;;;;;;;;;10.90;95.20;;;;;;5053499;28;20412;-94
2022/11/16 05:16:10;;;;;;;;;;;10.90;95.20;;;;;;5053997;28;19969;-94
2022/11/16 05:18:36;;;;;;;;;;;10.90;95.20;;;;;;5053771;28;19941;-95
2022/11/16 05:21:01;;;;;;;;;;;10.90;95.20;;;;;;5054053;28;19949;-94
2022/11/16 05:26:11;;;;;;;;;;;10.90;95.20;;;;;;5054036;28;19981;-94
2022/11/16 05:28:36;;;;;;;;;;;10.90;95.20;;;;;;5054852;28;20023;-94
2022/11/16 05:31:02;;;;;;;;;;;10.90;95.20;;;;;;5057353;28;19947;-94
2022/11/16 05:33:27;;;;;;;;;;;10.90;95.20;;;;;;5072572;28;19945;-94
2022/11/16 05:35:53;;;;;;;;;;;10.90;95.20;;;;;;5057207;28;19960;-94
2022/11/16 05:38:19;;;;;;;;;;;10.90;95.20;;;;;;5057453;28;19935;-93
2022/11/16 05:40:44;;;;;;;;;;;10.90;95.20;;;;;;5057107;28;19998;-94
2022/11/16 05:43:10;;;;;;;;;;;10.90;95.20;;;;;;5057068;28;19954;-95
2022/11/16 05:45:35;;;;;;;;;;;10.90;95.20;;;;;;5057335;28;19941;-94
2022/11/16 05:48:01;;;;;;;;;;;10.90;95.20;;;;;;5056967;28;19945;-94
2022/11/16 05:50:26;;;;;;;;;;;10.90;95.10;;;;;;5056709;28;19984;-93
2022/11/16 05:52:52;;;;;;;;;;;10.90;95.00;;;;;;5056507;28;20308;-93
2022/11/16 05:55:17;;;;;;;;;;;10.90;95.10;;;;;;5056572;28;20367;-93
2022/11/16 05:57:43;;;;;;;;;;;10.90;95.10;;;;;;5072066;28;20390;-93
2022/11/16 06:00:09;;;;;;;;;;;10.90;95.20;;;;;;5056634;28;20034;-94
2022/11/16 06:02:35;;;;;;;;;;;10.90;95.20;;;;;;5056797;28;19969;-94
2022/11/16 06:05:01;;;;;;;;;;;11.00;95.20;;;;;;5055403;28;20308;-93
2022/11/16 06:07:26;;;;;;;;;;;11.00;95.10;;;;;;5055369;28;19952;-94
2022/11/16 06:09:52;;;;;;;;;;;11.00;95.00;;;;;;5056586;28;19939;-93
2022/11/16 06:12:17;;;;;;;;;;;11.00;95.00;;;;;;5056493;28;19939;-94
2022/11/16 06:14:43;;;;;;;;;;;11.00;94.90;;;;;;5056507;28;19938;-94
2022/11/16 06:17:13;;;;;;;;;;;11.10;94.90;;;;;;5056606;28;19962;-94
2022/11/16 06:19:39;;;;;;;;;;;11.10;94.80;;;;;;5056284;28;20034;-93
2022/11/16 06:22:04;;;;;;;;;;;11.10;94.80;;;;;;5056364;28;19977;-93
2022/11/16 06:24:30;;;;;;;;;;;11.10;94.90;;;;;;5056333;28;19940;-93
2022/11/16 06:26:55;;;;;;;;;;;11.10;94.90;;;;;;5056116;28;20030;-94
2022/11/16 06:29:21;;;;;;;;;;;11.10;94.80;;;;;;5055666;28;20365;-94
2022/11/16 06:31:46;;;;;;;;;;;11.10;94.80;;;;;;5056110;28;20375;-93
2022/11/16 06:34:12;;;;;;;;;;;11.20;94.70;;;;;;5071499;28;20326;-93
2022/11/16 06:36:37;;;;;;;;;;;11.30;94.50;;;;;;5055942;28;20405;-94
2022/11/16 06:39:03;;;;;;;;;;;11.30;94.40;;;;;;5055597;28;19943;-94
2022/11/16 06:41:29;;;;;;;;;;;11.30;94.30;;;;;;5055878;28;19942;-94
2022/11/16 06:43:54;;;;;;;;;;;11.40;94.00;;;;;;5071263;28;20042;-93
2022/11/16 06:46:20;;;;;;;;;;;11.40;94.00;;;;;;5054581;28;19938;-94
2022/11/16 06:48:45;;;;;;;;;;;11.40;94.00;;;;;;5055746;28;20361;-93
2022/11/16 06:51:11;;;;;;;;;;;11.50;94.10;;;;;;5054094;28;20486;-94
2022/11/16 06:53:36;;;;;;;;;;;11.60;93.90;;;;;;5055994;28;20034;-93
2022/11/16 06:56:03;;;;;;;;;;;11.70;93.60;;;;;;5055451;28;19966;-94
2022/11/16 06:58:30;;;;;;;;;;;11.80;93.40;;;;;;5055176;28;20042;-94
2022/11/16 07:00:56;;;;;;;;;;;11.70;93.30;;;;;;5055381;28;19947;-94
2022/11/16 07:03:21;;;;;;;;;;;11.70;93.50;;;;;;5055490;28;19939;-93
2022/11/16 07:05:47;;;;;;;;;;;11.70;93.40;;;;;;5055778;28;19947;-94
2022/11/16 07:08:12;;;;;;;;;;;11.80;93.30;;;;;;5055478;28;19993;-94
2022/11/16 07:10:38;;;;;;;;;;;11.60;93.10;;;;;;5055659;28;19943;-94
2022/11/16 07:13:04;;;;;;;;;;;11.50;93.40;;;;;;5055593;28;19943;-94
2022/11/16 07:15:29;;;;;;;;;;;11.50;93.40;;;;;;5055199;28;20381;-93
2022/11/16 07:17:55;;;;;;;;;;;11.50;93.60;;;;;;5055369;28;19946;-94
2022/11/16 07:20:21;;;;;;;;;;;11.60;93.70;;;;;;5055475;28;19939;-94
2022/11/16 07:22:47;;;;;;;;;;;11.80;93.50;;;;;;5055506;28;19939;-94
2022/11/16 07:25:12;;;;;;;;;;;11.90;93.20;;;;;;5055215;28;19947;-94
2022/11/16 07:27:38;;;;;;;;;;;11.90;93.00;;;;;;5055325;28;19992;-94
2022/11/16 07:30:04;;;;;;;;;;;11.90;92.80;;;;;;5054884;28;20470;-93
2022/11/16 07:32:30;;;;;;;;;;;11.80;92.90;;;;;;5054953;28;20070;-94
2022/11/16 07:34:55;;;;;;;;;;;11.80;92.90;;;;;;5053580;28;19981;-94
2022/11/16 07:37:21;;;;;;;;;;;11.70;92.80;;;;;;5054799;28;20059;-94
2022/11/16 07:39:46;;;;;;;;;;;11.50;93.40;;;;;;5054945;28;19942;-94
2022/11/16 07:42:12;;;;;;;;;;;11.50;93.50;;;;;;5054863;28;20288;-94
2022/11/16 07:44:38;;;;;;;;;;;11.50;93.60;;;;;;5054810;28;19939;-93
2022/11/16 07:47:04;;;;;;;;;;;11.50;93.50;;;;;;5053401;28;19944;-93
2022/11/16 07:49:29;;;;;;;;;;;11.50;93.70;;;;;;5054761;28;19950;-94
2022/11/16 07:51:55;;;;;;;;;;;11.50;93.80;;;;;;5061385;22;20454;-94
2022/11/16 07:54:20;;;;;;;;;;;11.70;93.70;;;;;;5053238;28;19944;-93
2022/11/16 07:56:46;;;;;;;;;;;11.70;93.50;;;;;;5054440;28;19955;-93
2022/11/16 07:59:11;;;;;;;;;;;11.70;93.40;;;;;;5054445;28;20386;-93
2022/11/16 08:01:37;;;;;;;;;;;11.80;93.40;;;;;;5054368;28;19936;-94
2022/11/16 08:04:02;;;;;;;;;;;11.90;93.20;;;;;;5055023;28;19937;-93
2022/11/16 08:06:29;;;;;;;;;;;12.00;92.90;;;;;;5054234;28;20419;-94
2022/11/16 08:08:55;;;;;;;;;;;12.00;92.80;;;;;;5054052;28;20350;-94
2022/11/16 08:11:20;;;;;;;;;;;12.20;92.80;;;;;;5054395;28;19936;-94
2022/11/16 08:13:46;;;;;;;;;;;12.20;92.00;;;;;;5054251;28;20507;-94
2022/11/16 08:16:13;;;;;;;;;;;12.20;91.90;;;;;;5054165;28;19961;-94
2022/11/16 08:18:39;;;;;;;;;;;12.20;91.90;;;;;;5054184;28;19949;-95
2022/11/16 08:21:06;;;;;;;;;;;12.20;92.00;;;;;;5052578;28;20334;-94
2022/11/16 08:23:32;;;;;;;;;;;12.10;91.90;;;;;;5054002;28;20016;-94
2022/11/16 08:26:01;;;;;;;;;;;12.20;92.10;;;;;;5054081;28;19991;-94
2022/11/16 08:28:27;;;;;;;;;;;12.30;91.80;;;;;;5053931;28;20460;-93
2022/11/16 08:30:53;;;;;;;;;;;12.40;91.70;;;;;;5053910;28;19984;-94
2022/11/16 08:33:20;;;;;;;;;;;12.40;91.30;;;;;;5052764;28;19936;-94
2022/11/16 08:35:49;;;;;;;;;;;12.40;91.20;;;;;;5053817;28;19962;-94
2022/11/16 08:38:15;;;;;;;;;;;12.60;91.00;;;;;;5054201;28;19935;-94
2022/11/16 08:40:40;;;;;;;;;;;12.60;90.80;;;;;;5054181;28;19945;-94
2022/11/16 08:43:06;;;;;;;;;;;12.50;90.60;;;;;;5053766;28;20447;-94
2022/11/16 08:45:32;;;;;;;;;;;12.50;90.50;;;;;;5053893;28;19987;-94
2022/11/16 08:47:58;;;;;;;;;;;12.50;90.70;;;;;;5053925;28;19948;-93
2022/11/16 08:50:24;;;;;;;;;;;12.30;90.90;;;;;;5052362;28;20340;-94
2022/11/16 08:52:49;;;;;;;;;;;12.00;92.00;;;;;;5052322;28;20409;-94
2022/11/16 08:55:17;;;;;;;;;;;12.00;92.60;;;;;;5053610;28;20030;-94
2022/11/16 08:57:42;;;;;;;;;;;11.90;93.20;;;;;;5054120;28;19976;-94
2022/11/16 09:00:08;;;;;;;;;;;11.90;93.80;;;;;;5053440;28;20392;-93
2022/11/16 09:02:34;;;;;;;;;;;11.80;93.50;;;;;;5053711;28;19943;-93
2022/11/16 09:04:59;;;;;;;;;;;11.70;93.50;;;;;;5057209;28;20335;-94
2022/11/16 09:07:25;;;;;;;;;;;11.70;93.90;;;;;;5057951;28;20315;-94
2022/11/16 09:09:50;;;;;;;;;;;11.80;94.00;;;;;;5057778;28;19940;-94
2022/11/16 09:12:16;;;;;;;;;;;11.80;93.70;;;;;;5057563;28;19940;-93
2022/11/16 09:14:42;;;;;;;;;;;11.90;93.60;;;;;;5057618;28;19939;-94
2022/11/16 09:17:07;;;;;;;;;;;11.80;93.60;;;;;;5057328;28;20368;-94
2022/11/16 09:19:33;;;;;;;;;;;11.90;93.70;;;;;;5057432;28;19996;-93
2022/11/16 09:21:58;;;;;;;;;;;11.90;93.60;;;;;;5057330;28;20355;-94
2022/11/16 09:24:24;;;;;;;;;;;11.90;93.80;;;;;;5057297;28;19949;-93
2022/11/16 09:26:50;;;;;;;;;;;11.80;93.50;;;;;;5055916;28;19942;-92
2022/11/16 09:29:15;;;;;;;;;;;11.70;93.80;;;;;;5057423;28;19944;-94
2022/11/16 09:31:41;;;;;;;;;;;11.80;93.90;;;;;;5057121;28;19937;-94
2022/11/16 09:34:07;;;;;;;;;;;11.80;93.80;;;;;;5057198;28;19938;-94
2022/11/16 09:36:32;;;;;;;;;;;11.90;94.00;;;;;;5057143;28;19955;-93
2022/11/16 09:38:58;;;;;;;;;;;12.20;94.20;;;;;;5056930;28;19948;-93
2022/11/16 09:41:42;;;;;;;;;;;12.30;93.60;;;;;;5056882;28;19940;-93
2022/11/16 09:44:18;;;;;;;;;;;12.40;93.50;;;;;;5036845;28;20085;-93
2022/11/16 09:46:45;;;;;;;;;;;12.40;92.80;;;;;;5036359;28;19940;-93
2022/11/16 09:49:14;;;;;;;;;;;12.60;93.00;;;;;;5039313;28;19946;-94
2022/11/16 09:51:40;;;;;;;;;;;12.80;92.40;;;;;;5055662;28;19954;-94
2022/11/16 09:54:08;;;;;;;;;;;12.90;91.00;;;;;;5056552;28;19941;-93
2022/11/16 09:56:36;;;;;;;;;;;13.00;90.90;;;;;;5056599;28;20388;-94
2022/11/16 09:59:08;;;;;;;;;;;13.40;89.70;;;;;;5056279;28;20040;-93
2022/11/16 10:01:36;;;;;;;;;;;13.60;87.60;;;;;;5056643;28;19939;-94
2022/11/16 10:04:21;;;;;;;;;;;13.70;87.60;;;;;;5071852;28;19942;-94
2022/11/16 10:06:50;;;;;;;;;;;13.60;87.80;;;;;;5056554;28;19972;-94
2022/11/16 10:09:15;;;;;;;;;;;13.50;87.90;;;;;;5071117;28;19949;-93
2022/11/16 10:11:57;;;;;;;;;;;13.30;88.60;;;;;;5051134;28;19941;-93
2022/11/16 10:14:29;;;;;;;;;;;13.10;89.00;;;;;;5055770;28;19944;-93
2022/11/16 10:16:59;;;;;;;;;;;12.90;89.60;;;;;;5049467;28;19948;-93
2022/11/16 10:19:34;;;;;;;;;;;12.80;90.50;;;;;;5049437;28;19943;-92
2022/11/16 10:22:21;;;;;;;;;;;12.90;91.10;;;;;;5040008;28;20044;-93
2022/11/16 10:24:53;;;;;;;;;;;12.90;90.90;;;;;;5036117;28;19977;-94
2022/11/16 10:27:37;;;;;;;;;;;13.00;91.00;;;;;;5035797;28;20000;-94
2022/11/16 10:30:12;;;;;;;;;;;13.10;91.00;;;;;;5036008;28;20435;-94
2022/11/16 10:32:44;;;;;;;;;;;13.40;90.40;;;;;;5036052;28;19946;-94
2022/11/16 10:35:10;;;;;;;;;;;13.40;88.60;;;;;;5036044;28;19940;-94
2022/11/16 10:37:38;;;;;;;;;;;13.50;88.70;;;;;;5036040;28;19971;-93
2022/11/16 10:40:18;;;;;;;;;;;13.50;87.70;;;;;;5050480;28;20009;-94
2022/11/16 10:42:45;;;;;;;;;;;13.40;88.50;;;;;;5035983;28;19967;-94
2022/11/16 10:45:17;;;;;;;;;;;13.10;89.20;;;;;;5035879;28;19945;-94
2022/11/16 10:47:45;;;;;;;;;;;12.90;89.20;;;;;;5035730;28;20034;-94
2022/11/16 10:50:17;;;;;;;;;;;12.80;89.80;;;;;;5035720;28;19988;-93
2022/11/16 10:52:42;;;;;;;;;;;12.90;90.70;;;;;;5035431;28;19996;-94
2022/11/16 10:55:13;;;;;;;;;;;12.90;90.90;;;;;;5035643;28;19948;-94
2022/11/16 10:58:05;;;;;;;;;;;13.10;90.70;;;;;;5035605;28;20410;-94
2022/11/16 11:00:35;;;;;;;;;;;13.40;90.20;;;;;;5031129;28;19953;-94
2022/11/16 11:03:01;;;;;;;;;;;13.60;89.20;;;;;;5035470;28;20021;-94
2022/11/16 11:05:27;;;;;;;;;;;13.70;88.00;;;;;;5035061;28;20037;-94
2022/11/16 11:08:02;;;;;;;;;;;13.70;87.70;;;;;;5034936;28;19942;-94
2022/11/16 11:10:33;;;;;;;;;;;13.80;88.10;;;;;;5034951;28;19948;-93
2022/11/16 11:13:04;;;;;;;;;;;13.80;88.60;;;;;;5035390;28;19935;-94
2022/11/16 11:15:30;;;;;;;;;;;13.90;88.00;;;;;;5035324;28;19935;-93
2022/11/16 11:18:25;;;;;;;;;;;13.70;87.40;;;;;;5035408;28;19946;-93
2022/11/16 11:20:56;;;;;;;;;;;13.70;88.60;;;;;;5026561;28;19941;-94
2022/11/16 11:23:23;;;;;;;;;;;13.70;87.90;;;;;;5035194;28;20043;-94
2022/11/16 11:25:56;;;;;;;;;;;13.80;87.90;;;;;;5034707;28;20000;-94
2022/11/16 11:28:32;;;;;;;;;;;13.90;88.10;;;;;;5035090;28;19945;-94
2022/11/16 11:31:21;;;;;;;;;;;13.90;87.70;;;;;;5035202;28;19939;-95
2022/11/16 11:34:03;;;;;;;;;;;13.90;88.10;;;;;;5034988;28;19946;-94
2022/11/16 11:36:34;;;;;;;;;;;13.80;87.80;;;;;;5035137;28;19955;-94
2022/11/16 11:39:07;;;;;;;;;;;13.60;88.80;;;;;;5034954;28;19943;-94
2022/11/16 11:41:38;;;;;;;;;;;13.50;89.50;;;;;;5034840;28;20426;-93
2022/11/16 11:44:05;;;;;;;;;;;13.50;89.70;;;;;;5034762;28;19933;-94
2022/11/16 11:46:33;;;;;;;;;;;13.60;89.20;;;;;;5034571;28;20005;-93
2022/11/16 11:49:03;;;;;;;;;;;13.60;89.90;;;;;;5034631;28;19947;-93
2022/11/16 11:51:32;;;;;;;;;;;13.80;89.90;;;;;;5034257;28;20090;-94
2022/11/16 11:53:58;;;;;;;;;;;13.90;89.10;;;;;;5034361;28;19996;-93
2022/11/16 11:56:26;;;;;;;;;;;14.10;88.40;;;;;;5034306;28;19961;-94
2022/11/16 11:58:52;;;;;;;;;;;14.20;88.10;;;;;;5034774;28;19975;-93
2022/11/16 12:01:37;;;;;;;;;;;14.30;87.30;;;;;;5034433;28;19948;-93
2022/11/16 12:04:11;;;;;;;;;;;14.40;86.70;;;;;;5034356;28;19942;-94
2022/11/16 12:06:51;;;;;;;;;;;14.30;87.00;;;;;;5034094;28;20403;-94
2022/11/16 12:09:41;;;;;;;;;;;14.40;87.40;;;;;;5033115;28;19940;-93
2022/11/16 12:12:07;;;;;;;;;;;14.40;86.30;;;;;;5049448;28;20317;-94
2022/11/16 12:14:44;;;;;;;;;;;14.20;86.60;;;;;;5034250;28;19940;-93
2022/11/16 12:17:26;;;;;;;;;;;14.10;87.20;;;;;;5033933;28;20006;-93
2022/11/16 12:19:56;;;;;;;;;;;14.10;87.60;;;;;;5049911;28;20037;-94
2022/11/16 12:22:22;;;;;;;;;;;14.10;87.30;;;;;;5053861;28;19934;-93
2022/11/16 12:25:06;;;;;;;;;;;13.90;87.50;;;;;;5053905;28;20403;-93
2022/11/16 12:27:37;;;;;;;;;;;14.00;87.80;;;;;;5046802;28;19968;-94
2022/11/16 12:30:17;;;;;;;;;;;14.10;87.60;;;;;;5039358;28;19939;-94
2022/11/16 12:32:54;;;;;;;;;;;14.20;87.60;;;;;;5049053;28;20031;-94
2022/11/16 12:35:38;;;;;;;;;;;14.20;86.70;;;;;;5040961;28;19996;-94
2022/11/16 12:38:23;;;;;;;;;;;14.20;87.10;;;;;;5051911;28;20049;-93
2022/11/16 12:40:49;;;;;;;;;;;14.20;87.00;;;;;;5053631;28;20008;-94
2022/11/16 12:43:14;;;;;;;;;;;14.20;87.30;;;;;;5050965;28;20407;-93
2022/11/16 12:45:55;;;;;;;;;;;14.30;87.00;;;;;;5046309;28;19955;-93
2022/11/16 12:48:23;;;;;;;;;;;14.30;86.80;;;;;;5042109;28;20428;-93
2022/11/16 12:50:52;;;;;;;;;;;14.40;86.70;;;;;;5048780;28;20446;-92
2022/11/16 12:53:36;;;;;;;;;;;14.40;86.70;;;;;;5047171;28;19949;-92
2022/11/16 12:56:08;;;;;;;;;;;14.40;86.30;;;;;;5047237;28;19961;-92
2022/11/16 12:58:45;;;;;;;;;;;14.40;86.20;;;;;;5036280;28;20314;-93
2022/11/16 13:01:20;;;;;;;;;;;14.40;85.80;;;;;;5040200;28;19992;-92
2022/11/16 13:03:51;;;;;;;;;;;14.40;86.20;;;;;;5052090;28;20015;-92
2022/11/16 13:06:19;;;;;;;;;;;14.40;86.80;;;;;;5052567;28;20009;-92
2022/11/16 13:08:48;;;;;;;;;;;14.40;86.30;;;;;;5047445;28;19982;-92
2022/11/16 13:11:19;;;;;;;;;;;14.30;86.50;;;;;;5036785;28;20039;-92
2022/11/16 13:13:45;;;;;;;;;;;14.60;86.00;;;;;;5052378;28;20002;-92
2022/11/16 13:16:15;;;;;;;;;;;15.20;84.80;;;;;;5050634;28;20515;-92
2022/11/16 13:18:42;;;;;;;;;;;15.60;83.00;;;;;;5049700;28;19945;-92
2022/11/16 13:21:27;;;;;;;;;;;15.70;82.50;;;;;;5048567;28;19943;-92
2022/11/16 13:24:04;;;;;;;;;;;16.30;80.70;;;;;;5046988;28;19944;-92
2022/11/16 13:26:36;;;;;;;;;;;17.00;77.50;;;;;;5047290;28;19943;-92
2022/11/16 13:29:08;;;;;;;;;;;17.00;76.90;;;;;;5040380;28;20407;-92
2022/11/16 13:31:45;;;;;;;;;;;16.70;78.70;;;;;;5048584;28;19941;-92
2022/11/16 13:34:31;;;;;;;;;;;16.30;79.80;;;;;;5046195;28;19948;-92
2022/11/16 13:36:57;;;;;;;;;;;15.90;79.60;;;;;;5032425;28;19968;-92
2022/11/16 13:39:41;;;;;;;;;;;15.20;82.90;;;;;;5040849;28;20331;-92
2022/11/16 13:42:11;;;;;;;;;;;14.80;84.40;;;;;;5047853;28;19948;-92
2022/11/16 13:44:36;;;;;;;;;;;14.40;85.10;;;;;;5042251;28;20032;-92
2022/11/16 13:47:16;;;;;;;;;;;14.30;85.80;;;;;;5039643;28;20040;-92
2022/11/16 13:49:48;;;;;;;;;;;14.20;86.80;;;;;;5045713;28;19943;-91
2022/11/16 13:52:14;;;;;;;;;;;14.10;87.30;;;;;;5047996;28;19973;-92
2022/11/16 13:54:44;;;;;;;;;;;14.00;87.30;;;;;;5046820;28;20474;-92
2022/11/16 13:57:25;;;;;;;;;;;13.90;87.30;;;;;;5050562;28;19956;-91
2022/11/16 14:00:11;;;;;;;;;;;13.80;87.60;;;;;;5049921;28;19978;-92
2022/11/16 14:02:37;;;;;;;;;;;13.80;88.10;;;;;;5050948;28;19985;-92
2022/11/16 14:05:11;;;;;;;;;;;13.90;88.40;;;;;;5052752;28;19945;-92
2022/11/16 14:07:46;;;;;;;;;;;13.90;88.00;;;;;;5052462;28;19952;-92
2022/11/16 14:10:31;;;;;;;;;;;13.90;88.10;;;;;;5047804;28;19938;-92
2022/11/16 14:12:57;;;;;;;;;;;13.90;88.30;;;;;;5050199;28;19944;-93
2022/11/16 14:15:27;;;;;;;;;;;13.90;88.10;;;;;;5048114;28;19944;-92
2022/11/16 14:18:02;;;;;;;;;;;14.00;88.30;;;;;;5051728;28;19963;-92
2022/11/16 14:20:36;;;;;;;;;;;14.00;88.30;;;;;;5048911;28;19941;-92
2022/11/16 14:23:19;;;;;;;;;;;14.00;87.70;;;;;;5048017;28;19950;-91
2022/11/16 14:25:54;;;;;;;;;;;13.90;87.60;;;;;;5051095;28;19950;-92
2022/11/16 14:28:19;;;;;;;;;;;13.90;87.90;;;;;;5046763;28;20035;-92
2022/11/16 14:31:04;;;;;;;;;;;13.90;88.40;;;;;;5050074;28;20491;-92
2022/11/16 14:33:30;;;;;;;;;;;13.90;88.10;;;;;;5051973;28;19944;-92
2022/11/16 14:35:56;;;;;;;;;;;13.90;88.30;;;;;;5047243;28;20455;-93
2022/11/16 14:38:27;;;;;;;;;;;13.70;88.30;;;;;;5051747;28;19947;-92
2022/11/16 14:40:53;;;;;;;;;;;13.70;88.70;;;;;;5047904;28;20293;-92
2022/11/16 14:43:27;;;;;;;;;;;13.70;88.90;;;;;;5051657;28;19997;-93
2022/11/16 14:45:55;;;;;;;;;;;13.70;89.10;;;;;;5037481;28;19945;-92
2022/11/16 14:48:21;;;;;;;;;;;13.70;89.40;;;;;;5047306;28;19952;-92
2022/11/16 14:50:57;;;;;;;;;;;13.80;89.40;;;;;;5054975;28;19976;-93
2022/11/16 14:53:24;;;;;;;;;;;13.70;88.90;;;;;;5055298;28;20021;-93
2022/11/16 14:55:49;;;;;;;;;;;13.80;88.80;;;;;;5044057;28;19953;-93
2022/11/16 14:58:16;;;;;;;;;;;13.70;88.70;;;;;;5044304;28;19949;-92
2022/11/16 15:00:58;;;;;;;;;;;13.70;88.70;;;;;;5054280;28;19973;-93
2022/11/16 15:03:26;;;;;;;;;;;13.60;89.10;;;;;;5042007;28;19946;-93
2022/11/16 15:05:55;;;;;;;;;;;13.60;89.10;;;;;;5051422;28;19945;-93